sensor_id;sensor_type;location;lat;lon;timestamp;temperature;humidity
18083;DHT22;9168;51.194;6.840;2023-04-23T00:01:16;11.20;99.90
18083;DHT22;9168;51.194;6.840;2023-04-23T00:03:47;11.20;99.90
18083;DHT22;9168;51.194;6.840;2023-04-23T00:06:16;11.20;99.90
18083;DHT22;9168;51.194;6.840;2023-04-23T00:08:43;11.20;99.90
18083;DHT22;9168;51.194;6.840;2023-04-23T00:11:11;11.20;99.90
18083;DHT22;9168;51.194;6.840;2023-04-23T00:13:38;11.20;99.90
18083;DHT22;9168;51.194;6.840;2023-04-23T00:16:06;11.20;99.90
18083;DHT22;9168;51.194;6.840;2023-04-23T00:18:35;11.10;99.90
18083;DHT22;9168;51.194;6.840;2023-04-23T00:21:03;11.10;99.90
18083;DHT22;9168;51.194;6.840;2023-04-23T00:23:30;11.10;99.90
18083;DHT22;9168;51.194;6.840;2023-04-23T00:25:57;11.10;99.90
18083;DHT22;9168;51.194;6.840;2023-04-23T00:28:24;11.10;99.90
18083;DHT22;9168;51.194;6.840;2023-04-23T00:30:51;11.10;99.90
18083;DHT22;9168;51.194;6.840;2023-04-23T00:33:17;11.10;99.90
18083;DHT22;9168;51.194;6.840;2023-04-23T00:35:45;11.10;99.90
18083;DHT22;9168;51.194;6.840;2023-04-23T00:38:13;11.10;99.90
18083;DHT22;9168;51.194;6.840;2023-04-23T00:40:40;11.00;99.90
18083;DHT22;9168;51.194;6.840;2023-04-23T00:43:07;11.00;99.90
18083;DHT22;9168;51.194;6.840;2023-04-23T00:45:34;11.00;99.90
18083;DHT22;9168;51.194;6.840;2023-04-23T00:48:01;11.00;99.90
18083;DHT22;9168;51.194;6.840;2023-04-23T00:50:29;11.00;99.90
18083;DHT22;9168;51.194;6.840;2023-04-23T00:52:56;11.00;99.90
18083;DHT22;9168;51.194;6.840;2023-04-23T00:55:24;11.00;99.90
18083;DHT22;9168;51.194;6.840;2023-04-23T00:57:52;11.00;99.90
18083;DHT22;9168;51.194;6.840;2023-04-23T01:00:19;11.00;99.90
18083;DHT22;9168;51.194;6.840;2023-04-23T01:02:48;11.00;99.90
18083;DHT22;9168;51.194;6.840;2023-04-23T01:05:18;11.00;99.90
18083;DHT22;9168;51.194;6.840;2023-04-23T01:07:45;10.90;99.90
18083;DHT22;9168;51.194;6.840;2023-04-23T01:10:12;10.90;99.90
18083;DHT22;9168;51.194;6.840;2023-04-23T01:12:41;10.80;99.90
18083;DHT22;9168;51.194;6.840;2023-04-23T01:15:09;10.80;99.90
18083;DHT22;9168;51.194;6.840;2023-04-23T01:17:36;10.80;99.90
18083;DHT22;9168;51.194;6.840;2023-04-23T01:20:03;10.80;99.90
18083;DHT22;9168;51.194;6.840;2023-04-23T01:22:35;10.80;99.90
18083;DHT22;9168;51.194;6.840;2023-04-23T01:25:02;10.80;99.90
18083;DHT22;9168;51.194;6.840;2023-04-23T01:27:29;10.70;99.90
18083;DHT22;9168;51.194;6.840;2023-04-23T01:29:56;10.70;99.90
18083;DHT22;9168;51.194;6.840;2023-04-23T01:32:24;10.70;99.90
18083;DHT22;9168;51.194;6.840;2023-04-23T01:34:51;10.70;99.90
18083;DHT22;9168;51.194;6.840;2023-04-23T01:37:19;10.70;99.90
18083;DHT22;9168;51.194;6.840;2023-04-23T01:39:49;10.70;99.90
18083;DHT22;9168;51.194;6.840;2023-04-23T01:42:17;10.70;99.90
18083;DHT22;9168;51.194;6.840;2023-04-23T01:44:44;10.70;99.90
18083;DHT22;9168;51.194;6.840;2023-04-23T01:47:11;10.70;99.90
18083;DHT22;9168;51.194;6.840;2023-04-23T01:49:38;10.70;99.90
18083;DHT22;9168;51.194;6.840;2023-04-23T01:52:05;10.60;99.90
18083;DHT22;9168;51.194;6.840;2023-04-23T01:54:32;10.60;99.90
18083;DHT22;9168;51.194;6.840;2023-04-23T01:57:00;10.60;99.90
18083;DHT22;9168;51.194;6.840;2023-04-23T01:59:27;10.70;99.90
18083;DHT22;9168;51.194;6.840;2023-04-23T02:01:54;10.70;99.90
18083;DHT22;9168;51.194;6.840;2023-04-23T02:04:21;10.70;99.90
18083;DHT22;9168;51.194;6.840;2023-04-23T02:06:49;10.70;99.90
18083;DHT22;9168;51.194;6.840;2023-04-23T02:09:16;10.80;99.90
18083;DHT22;9168;51.194;6.840;2023-04-23T02:11:43;10.80;99.90
18083;DHT22;9168;51.194;6.840;2023-04-23T02:14:12;10.90;99.90
18083;DHT22;9168;51.194;6.840;2023-04-23T02:16:39;10.90;99.90
18083;DHT22;9168;51.194;6.840;2023-04-23T02:19:06;10.90;99.90
18083;DHT22;9168;51.194;6.840;2023-04-23T02:21:33;10.90;99.90
18083;DHT22;9168;51.194;6.840;2023-04-23T02:24:00;10.90;99.90
18083;DHT22;9168;51.194;6.840;2023-04-23T02:26:26;10.80;99.90
18083;DHT22;9168;51.194;6.840;2023-04-23T02:28:54;10.90;99.90
18083;DHT22;9168;51.194;6.840;2023-04-23T02:31:22;10.80;99.90
18083;DHT22;9168;51.194;6.840;2023-04-23T02:33:49;10.80;99.90
18083;DHT22;9168;51.194;6.840;2023-04-23T02:36:16;10.70;99.90
18083;DHT22;9168;51.194;6.840;2023-04-23T02:38:43;10.70;99.90
18083;DHT22;9168;51.194;6.840;2023-04-23T02:41:12;10.80;99.90
18083;DHT22;9168;51.194;6.840;2023-04-23T02:43:39;10.70;99.90
18083;DHT22;9168;51.194;6.840;2023-04-23T02:46:06;10.70;99.90
18083;DHT22;9168;51.194;6.840;2023-04-23T02:48:38;10.70;99.90
18083;DHT22;9168;51.194;6.840;2023-04-23T02:51:06;10.70;99.90
18083;DHT22;9168;51.194;6.840;2023-04-23T02:53:33;10.60;99.90
18083;DHT22;9168;51.194;6.840;2023-04-23T02:56:00;10.60;99.90
18083;DHT22;9168;51.194;6.840;2023-04-23T02:58:27;10.70;99.90
18083;DHT22;9168;51.194;6.840;2023-04-23T03:00:55;10.70;99.90
18083;DHT22;9168;51.194;6.840;2023-04-23T03:03:22;10.80;99.90
18083;DHT22;9168;51.194;6.840;2023-04-23T03:05:52;10.90;99.90
18083;DHT22;9168;51.194;6.840;2023-04-23T03:08:19;10.90;99.90
18083;DHT22;9168;51.194;6.840;2023-04-23T03:10:46;11.00;99.90
18083;DHT22;9168;51.194;6.840;2023-04-23T03:13:13;11.00;99.90
18083;DHT22;9168;51.194;6.840;2023-04-23T03:15:40;11.10;99.90
18083;DHT22;9168;51.194;6.840;2023-04-23T03:18:07;11.10;99.90
18083;DHT22;9168;51.194;6.840;2023-04-23T03:20:34;11.20;99.90
18083;DHT22;9168;51.194;6.840;2023-04-23T03:23:03;11.20;99.90
18083;DHT22;9168;51.194;6.840;2023-04-23T03:25:31;11.20;99.90
18083;DHT22;9168;51.194;6.840;2023-04-23T03:27:57;11.20;99.90
18083;DHT22;9168;51.194;6.840;2023-04-23T03:30:25;11.20;99.90
18083;DHT22;9168;51.194;6.840;2023-04-23T03:32:53;11.20;99.90
18083;DHT22;9168;51.194;6.840;2023-04-23T03:35:21;11.20;99.90
18083;DHT22;9168;51.194;6.840;2023-04-23T03:37:48;11.20;99.90
18083;DHT22;9168;51.194;6.840;2023-04-23T03:40:16;11.20;99.90
18083;DHT22;9168;51.194;6.840;2023-04-23T03:42:43;11.20;99.90
18083;DHT22;9168;51.194;6.840;2023-04-23T03:45:10;11.10;99.90
18083;DHT22;9168;51.194;6.840;2023-04-23T03:47:38;11.10;99.90
18083;DHT22;9168;51.194;6.840;2023-04-23T03:50:06;11.10;99.90
18083;DHT22;9168;51.194;6.840;2023-04-23T03:52:33;11.00;99.90
18083;DHT22;9168;51.194;6.840;2023-04-23T03:55:00;11.00;99.90
18083;DHT22;9168;51.194;6.840;2023-04-23T03:57:29;11.00;99.90
18083;DHT22;9168;51.194;6.840;2023-04-23T03:59:56;11.00;99.90
18083;DHT22;9168;51.194;6.840;2023-04-23T04:02:22;10.90;99.90
18083;DHT22;9168;51.194;6.840;2023-04-23T04:04:49;10.80;99.90
18083;DHT22;9168;51.194;6.840;2023-04-23T04:07:16;10.80;99.90
18083;DHT22;9168;51.194;6.840;2023-04-23T04:09:43;10.80;99.90
18083;DHT22;9168;51.194;6.840;2023-04-23T04:12:11;10.80;99.90
18083;DHT22;9168;51.194;6.840;2023-04-23T04:14:39;10.80;99.90
18083;DHT22;9168;51.194;6.840;2023-04-23T04:17:06;10.80;99.90
18083;DHT22;9168;51.194;6.840;2023-04-23T04:19:34;10.80;99.90
18083;DHT22;9168;51.194;6.840;2023-04-23T04:22:00;10.80;99.90
18083;DHT22;9168;51.194;6.840;2023-04-23T04:24:28;10.80;99.90
18083;DHT22;9168;51.194;6.840;2023-04-23T04:26:57;10.80;99.90
18083;DHT22;9168;51.194;6.840;2023-04-23T04:29:24;10.80;99.90
18083;DHT22;9168;51.194;6.840;2023-04-23T04:31:52;10.80;99.90
18083;DHT22;9168;51.194;6.840;2023-04-23T04:34:19;10.80;99.90
18083;DHT22;9168;51.194;6.840;2023-04-23T04:36:46;10.80;99.90
18083;DHT22;9168;51.194;6.840;2023-04-23T04:39:13;10.80;99.90
18083;DHT22;9168;51.194;6.840;2023-04-23T04:41:40;10.80;99.90
18083;DHT22;9168;51.194;6.840;2023-04-23T04:44:08;10.90;99.90
18083;DHT22;9168;51.194;6.840;2023-04-23T04:46:35;10.90;99.90
18083;DHT22;9168;51.194;6.840;2023-04-23T04:49:07;10.90;99.90
18083;DHT22;9168;51.194;6.840;2023-04-23T04:51:35;11.00;99.90
18083;DHT22;9168;51.194;6.840;2023-04-23T04:54:02;11.00;99.90
18083;DHT22;9168;51.194;6.840;2023-04-23T04:56:29;11.00;99.90
18083;DHT22;9168;51.194;6.840;2023-04-23T04:58:56;11.00;99.90
18083;DHT22;9168;51.194;6.840;2023-04-23T05:01:23;11.00;99.90
18083;DHT22;9168;51.194;6.840;2023-04-23T05:03:51;11.10;99.90
18083;DHT22;9168;51.194;6.840;2023-04-23T05:06:20;11.20;99.90
18083;DHT22;9168;51.194;6.840;2023-04-23T05:08:47;11.20;99.90
18083;DHT22;9168;51.194;6.840;2023-04-23T05:11:14;11.30;99.90
18083;DHT22;9168;51.194;6.840;2023-04-23T05:13:41;11.30;99.90
18083;DHT22;9168;51.194;6.840;2023-04-23T05:16:08;11.30;99.90
18083;DHT22;9168;51.194;6.840;2023-04-23T05:18:36;11.30;99.90
18083;DHT22;9168;51.194;6.840;2023-04-23T05:21:03;11.40;99.90
18083;DHT22;9168;51.194;6.840;2023-04-23T05:23:32;11.40;99.90
18083;DHT22;9168;51.194;6.840;2023-04-23T05:25:59;11.40;99.90
18083;DHT22;9168;51.194;6.840;2023-04-23T05:28:28;11.50;99.90
18083;DHT22;9168;51.194;6.840;2023-04-23T05:30:55;11.50;99.90
18083;DHT22;9168;51.194;6.840;2023-04-23T05:33:22;11.40;99.90
18083;DHT22;9168;51.194;6.840;2023-04-23T05:35:50;11.50;99.90
18083;DHT22;9168;51.194;6.840;2023-04-23T05:38:17;11.50;99.90
18083;DHT22;9168;51.194;6.840;2023-04-23T05:40:45;11.50;99.90
18083;DHT22;9168;51.194;6.840;2023-04-23T05:43:12;11.50;99.90
18083;DHT22;9168;51.194;6.840;2023-04-23T05:45:39;11.60;99.90
18083;DHT22;9168;51.194;6.840;2023-04-23T05:48:06;11.60;99.90
18083;DHT22;9168;51.194;6.840;2023-04-23T05:50:33;11.60;99.90
18083;DHT22;9168;51.194;6.840;2023-04-23T05:53:00;11.70;99.90
18083;DHT22;9168;51.194;6.840;2023-04-23T05:55:27;11.60;99.90
18083;DHT22;9168;51.194;6.840;2023-04-23T05:57:55;11.60;99.90
18083;DHT22;9168;51.194;6.840;2023-04-23T06:00:22;11.70;99.90
18083;DHT22;9168;51.194;6.840;2023-04-23T06:02:49;11.70;99.90
18083;DHT22;9168;51.194;6.840;2023-04-23T06:05:16;11.80;99.90
18083;DHT22;9168;51.194;6.840;2023-04-23T06:07:43;11.80;99.90
18083;DHT22;9168;51.194;6.840;2023-04-23T06:10:10;11.90;99.90
18083;DHT22;9168;51.194;6.840;2023-04-23T06:12:37;11.90;99.90
18083;DHT22;9168;51.194;6.840;2023-04-23T06:15:08;11.90;99.90
18083;DHT22;9168;51.194;6.840;2023-04-23T06:17:36;12.00;99.90
18083;DHT22;9168;51.194;6.840;2023-04-23T06:20:03;12.00;99.90
18083;DHT22;9168;51.194;6.840;2023-04-23T06:22:31;12.10;99.90
18083;DHT22;9168;51.194;6.840;2023-04-23T06:24:58;12.10;99.90
18083;DHT22;9168;51.194;6.840;2023-04-23T06:27:25;12.20;99.90
18083;DHT22;9168;51.194;6.840;2023-04-23T06:29:52;12.20;99.90
18083;DHT22;9168;51.194;6.840;2023-04-23T06:32:21;12.30;99.90
18083;DHT22;9168;51.194;6.840;2023-04-23T06:34:48;12.30;99.90
18083;DHT22;9168;51.194;6.840;2023-04-23T06:37:15;12.40;99.90
18083;DHT22;9168;51.194;6.840;2023-04-23T06:39:42;12.40;99.90
18083;DHT22;9168;51.194;6.840;2023-04-23T06:42:09;12.30;99.90
18083;DHT22;9168;51.194;6.840;2023-04-23T06:44:35;12.40;99.90
18083;DHT22;9168;51.194;6.840;2023-04-23T06:47:02;12.40;99.90
18083;DHT22;9168;51.194;6.840;2023-04-23T06:49:31;12.50;99.90
18083;DHT22;9168;51.194;6.840;2023-04-23T06:51:58;12.50;99.90
18083;DHT22;9168;51.194;6.840;2023-04-23T06:54:24;12.50;99.90
18083;DHT22;9168;51.194;6.840;2023-04-23T06:56:52;12.60;99.90
18083;DHT22;9168;51.194;6.840;2023-04-23T06:59:18;12.60;99.90
18083;DHT22;9168;51.194;6.840;2023-04-23T07:01:45;12.60;99.90
18083;DHT22;9168;51.194;6.840;2023-04-23T07:04:12;12.70;99.90
18083;DHT22;9168;51.194;6.840;2023-04-23T07:06:40;12.70;99.90
18083;DHT22;9168;51.194;6.840;2023-04-23T07:09:07;12.80;99.90
18083;DHT22;9168;51.194;6.840;2023-04-23T07:11:34;12.90;99.90
18083;DHT22;9168;51.194;6.840;2023-04-23T07:14:01;12.90;99.90
18083;DHT22;9168;51.194;6.840;2023-04-23T07:16:29;13.00;99.90
18083;DHT22;9168;51.194;6.840;2023-04-23T07:18:58;13.00;99.90
18083;DHT22;9168;51.194;6.840;2023-04-23T07:21:28;13.10;99.90
18083;DHT22;9168;51.194;6.840;2023-04-23T07:23:57;13.10;99.90
18083;DHT22;9168;51.194;6.840;2023-04-23T07:26:27;13.20;99.90
18083;DHT22;9168;51.194;6.840;2023-04-23T07:28:54;13.20;99.90
18083;DHT22;9168;51.194;6.840;2023-04-23T07:31:21;13.20;99.90
18083;DHT22;9168;51.194;6.840;2023-04-23T07:33:48;13.30;99.90
18083;DHT22;9168;51.194;6.840;2023-04-23T07:36:15;13.20;99.90
18083;DHT22;9168;51.194;6.840;2023-04-23T07:38:42;13.20;99.90
18083;DHT22;9168;51.194;6.840;2023-04-23T07:41:10;13.30;99.90
18083;DHT22;9168;51.194;6.840;2023-04-23T07:43:37;13.40;99.90
18083;DHT22;9168;51.194;6.840;2023-04-23T07:46:05;13.50;99.90
18083;DHT22;9168;51.194;6.840;2023-04-23T07:48:32;13.50;99.90
18083;DHT22;9168;51.194;6.840;2023-04-23T07:51:00;13.60;99.90
18083;DHT22;9168;51.194;6.840;2023-04-23T07:53:27;13.70;99.90
18083;DHT22;9168;51.194;6.840;2023-04-23T07:55:54;13.70;99.90
18083;DHT22;9168;51.194;6.840;2023-04-23T07:58:23;13.70;99.90
18083;DHT22;9168;51.194;6.840;2023-04-23T08:00:51;13.70;99.90
18083;DHT22;9168;51.194;6.840;2023-04-23T08:03:17;13.80;99.90
18083;DHT22;9168;51.194;6.840;2023-04-23T08:05:44;13.80;99.90
18083;DHT22;9168;51.194;6.840;2023-04-23T08:08:12;13.80;99.90
18083;DHT22;9168;51.194;6.840;2023-04-23T08:10:39;13.70;99.90
18083;DHT22;9168;51.194;6.840;2023-04-23T08:13:07;13.80;99.90
18083;DHT22;9168;51.194;6.840;2023-04-23T08:15:35;13.90;99.90
18083;DHT22;9168;51.194;6.840;2023-04-23T08:18:02;13.90;99.90
18083;DHT22;9168;51.194;6.840;2023-04-23T08:20:30;14.00;99.90
18083;DHT22;9168;51.194;6.840;2023-04-23T08:22:57;14.20;99.90
18083;DHT22;9168;51.194;6.840;2023-04-23T08:25:24;14.40;99.90
18083;DHT22;9168;51.194;6.840;2023-04-23T08:27:51;14.50;99.90
18083;DHT22;9168;51.194;6.840;2023-04-23T08:30:18;14.60;99.90
18083;DHT22;9168;51.194;6.840;2023-04-23T08:32:48;14.80;99.90
18083;DHT22;9168;51.194;6.840;2023-04-23T08:35:15;14.90;99.90
18083;DHT22;9168;51.194;6.840;2023-04-23T08:37:42;15.00;99.90
18083;DHT22;9168;51.194;6.840;2023-04-23T08:40:09;15.00;99.90
18083;DHT22;9168;51.194;6.840;2023-04-23T08:42:41;15.10;99.90
18083;DHT22;9168;51.194;6.840;2023-04-23T08:45:09;15.20;99.90
18083;DHT22;9168;51.194;6.840;2023-04-23T08:47:38;15.30;99.90
18083;DHT22;9168;51.194;6.840;2023-04-23T08:50:09;15.50;99.90
18083;DHT22;9168;51.194;6.840;2023-04-23T08:52:40;15.60;99.90
18083;DHT22;9168;51.194;6.840;2023-04-23T08:55:08;15.70;99.90
18083;DHT22;9168;51.194;6.840;2023-04-23T08:57:37;15.70;99.90
18083;DHT22;9168;51.194;6.840;2023-04-23T09:00:05;15.70;99.90
18083;DHT22;9168;51.194;6.840;2023-04-23T09:02:34;15.70;99.90
18083;DHT22;9168;51.194;6.840;2023-04-23T09:05:02;15.70;99.90
18083;DHT22;9168;51.194;6.840;2023-04-23T09:07:30;15.60;99.90
18083;DHT22;9168;51.194;6.840;2023-04-23T09:09:58;15.70;99.90
18083;DHT22;9168;51.194;6.840;2023-04-23T09:12:25;15.80;99.90
18083;DHT22;9168;51.194;6.840;2023-04-23T09:14:52;15.90;99.90
18083;DHT22;9168;51.194;6.840;2023-04-23T09:17:20;16.00;99.90
18083;DHT22;9168;51.194;6.840;2023-04-23T09:19:49;16.00;99.90
18083;DHT22;9168;51.194;6.840;2023-04-23T09:22:37;16.10;99.90
18083;DHT22;9168;51.194;6.840;2023-04-23T09:25:05;16.10;99.90
18083;DHT22;9168;51.194;6.840;2023-04-23T09:27:32;16.20;99.90
18083;DHT22;9168;51.194;6.840;2023-04-23T09:29:59;16.20;99.90
18083;DHT22;9168;51.194;6.840;2023-04-23T09:32:30;16.30;99.90
18083;DHT22;9168;51.194;6.840;2023-04-23T09:34:58;16.30;99.90
18083;DHT22;9168;51.194;6.840;2023-04-23T09:37:24;16.40;99.90
18083;DHT22;9168;51.194;6.840;2023-04-23T09:39:53;16.40;99.90
18083;DHT22;9168;51.194;6.840;2023-04-23T09:42:23;16.40;99.90
18083;DHT22;9168;51.194;6.840;2023-04-23T09:44:55;16.40;99.90
18083;DHT22;9168;51.194;6.840;2023-04-23T09:47:23;16.50;99.90
18083;DHT22;9168;51.194;6.840;2023-04-23T09:49:50;16.60;99.90
18083;DHT22;9168;51.194;6.840;2023-04-23T09:52:17;16.60;99.90
18083;DHT22;9168;51.194;6.840;2023-04-23T09:54:45;16.70;99.90
18083;DHT22;9168;51.194;6.840;2023-04-23T09:57:13;16.80;99.90
18083;DHT22;9168;51.194;6.840;2023-04-23T09:59:40;16.70;99.90
18083;DHT22;9168;51.194;6.840;2023-04-23T10:02:07;16.80;99.90
18083;DHT22;9168;51.194;6.840;2023-04-23T10:04:35;16.80;99.90
18083;DHT22;9168;51.194;6.840;2023-04-23T10:07:03;16.70;99.90
18083;DHT22;9168;51.194;6.840;2023-04-23T10:09:33;16.70;99.90
18083;DHT22;9168;51.194;6.840;2023-04-23T10:12:01;16.70;99.90
18083;DHT22;9168;51.194;6.840;2023-04-23T10:14:30;16.80;99.90
18083;DHT22;9168;51.194;6.840;2023-04-23T10:16:58;16.90;99.90
18083;DHT22;9168;51.194;6.840;2023-04-23T10:19:26;17.00;99.90
18083;DHT22;9168;51.194;6.840;2023-04-23T10:21:55;17.10;99.90
18083;DHT22;9168;51.194;6.840;2023-04-23T10:24:25;17.20;99.90
18083;DHT22;9168;51.194;6.840;2023-04-23T10:26:56;17.30;99.90
18083;DHT22;9168;51.194;6.840;2023-04-23T10:29:26;17.30;99.90
18083;DHT22;9168;51.194;6.840;2023-04-23T10:31:58;17.50;99.90
18083;DHT22;9168;51.194;6.840;2023-04-23T10:34:26;17.50;99.90
18083;DHT22;9168;51.194;6.840;2023-04-23T10:36:54;17.50;99.90
18083;DHT22;9168;51.194;6.840;2023-04-23T10:39:23;17.60;99.90
18083;DHT22;9168;51.194;6.840;2023-04-23T10:41:50;17.60;99.90
18083;DHT22;9168;51.194;6.840;2023-04-23T10:44:19;17.40;99.90
18083;DHT22;9168;51.194;6.840;2023-04-23T10:46:52;17.40;99.90
18083;DHT22;9168;51.194;6.840;2023-04-23T10:49:22;17.40;99.90
18083;DHT22;9168;51.194;6.840;2023-04-23T10:51:57;17.30;99.90
18083;DHT22;9168;51.194;6.840;2023-04-23T10:54:28;17.30;99.90
18083;DHT22;9168;51.194;6.840;2023-04-23T10:56:58;17.20;99.90
18083;DHT22;9168;51.194;6.840;2023-04-23T10:59:26;17.10;99.90
18083;DHT22;9168;51.194;6.840;2023-04-23T11:01:56;17.00;99.90
18083;DHT22;9168;51.194;6.840;2023-04-23T11:04:27;17.00;99.90
18083;DHT22;9168;51.194;6.840;2023-04-23T11:06:56;17.10;99.90
18083;DHT22;9168;51.194;6.840;2023-04-23T11:09:40;17.20;99.90
18083;DHT22;9168;51.194;6.840;2023-04-23T11:12:09;17.20;99.90
18083;DHT22;9168;51.194;6.840;2023-04-23T11:14:42;17.40;99.90
18083;DHT22;9168;51.194;6.840;2023-04-23T11:17:13;17.60;99.90
18083;DHT22;9168;51.194;6.840;2023-04-23T11:20:08;17.80;99.90
18083;DHT22;9168;51.194;6.840;2023-04-23T11:22:37;18.10;99.90
18083;DHT22;9168;51.194;6.840;2023-04-23T11:25:08;18.60;99.90
18083;DHT22;9168;51.194;6.840;2023-04-23T11:27:38;18.70;99.90
18083;DHT22;9168;51.194;6.840;2023-04-23T11:30:10;18.70;99.90
18083;DHT22;9168;51.194;6.840;2023-04-23T11:32:38;18.60;99.90
18083;DHT22;9168;51.194;6.840;2023-04-23T11:35:08;18.60;99.90
18083;DHT22;9168;51.194;6.840;2023-04-23T11:37:38;18.40;99.90
18083;DHT22;9168;51.194;6.840;2023-04-23T11:40:08;18.40;99.90
18083;DHT22;9168;51.194;6.840;2023-04-23T11:42:40;18.30;99.90
18083;DHT22;9168;51.194;6.840;2023-04-23T11:45:14;18.40;99.90
18083;DHT22;9168;51.194;6.840;2023-04-23T11:47:42;18.40;99.90
18083;DHT22;9168;51.194;6.840;2023-04-23T11:50:16;18.50;99.90
18083;DHT22;9168;51.194;6.840;2023-04-23T11:52:43;18.60;99.90
18083;DHT22;9168;51.194;6.840;2023-04-23T11:55:10;19.00;99.90
18083;DHT22;9168;51.194;6.840;2023-04-23T11:57:41;19.50;99.90
18083;DHT22;9168;51.194;6.840;2023-04-23T12:00:13;20.00;99.90
18083;DHT22;9168;51.194;6.840;2023-04-23T12:02:49;20.40;99.90
18083;DHT22;9168;51.194;6.840;2023-04-23T12:05:20;20.70;99.90
18083;DHT22;9168;51.194;6.840;2023-04-23T12:07:49;20.70;99.90
18083;DHT22;9168;51.194;6.840;2023-04-23T12:10:17;20.50;99.90
18083;DHT22;9168;51.194;6.840;2023-04-23T12:12:49;20.30;99.90
18083;DHT22;9168;51.194;6.840;2023-04-23T12:15:16;20.00;99.90
18083;DHT22;9168;51.194;6.840;2023-04-23T12:17:47;19.70;99.90
18083;DHT22;9168;51.194;6.840;2023-04-23T12:20:17;19.40;99.90
18083;DHT22;9168;51.194;6.840;2023-04-23T12:22:45;19.40;99.90
18083;DHT22;9168;51.194;6.840;2023-04-23T12:25:12;19.60;99.90
18083;DHT22;9168;51.194;6.840;2023-04-23T12:27:40;20.10;99.90
18083;DHT22;9168;51.194;6.840;2023-04-23T12:30:10;20.80;99.90
18083;DHT22;9168;51.194;6.840;2023-04-23T12:32:37;21.40;99.90
18083;DHT22;9168;51.194;6.840;2023-04-23T12:35:05;21.50;99.90
18083;DHT22;9168;51.194;6.840;2023-04-23T12:37:35;22.20;99.90
18083;DHT22;9168;51.194;6.840;2023-04-23T12:40:05;22.70;99.90
18083;DHT22;9168;51.194;6.840;2023-04-23T12:42:33;23.20;99.80
18083;DHT22;9168;51.194;6.840;2023-04-23T12:45:08;23.90;98.80
18083;DHT22;9168;51.194;6.840;2023-04-23T12:47:35;24.30;97.50
18083;DHT22;9168;51.194;6.840;2023-04-23T12:50:02;24.20;96.60
18083;DHT22;9168;51.194;6.840;2023-04-23T12:52:30;23.90;96.10
18083;DHT22;9168;51.194;6.840;2023-04-23T12:54:57;23.40;96.40
18083;DHT22;9168;51.194;6.840;2023-04-23T12:57:27;23.00;96.10
18083;DHT22;9168;51.194;6.840;2023-04-23T12:59:54;23.20;96.70
18083;DHT22;9168;51.194;6.840;2023-04-23T13:02:22;23.40;96.10
18083;DHT22;9168;51.194;6.840;2023-04-23T13:04:49;23.10;96.10
18083;DHT22;9168;51.194;6.840;2023-04-23T13:07:16;23.00;97.00
18083;DHT22;9168;51.194;6.840;2023-04-23T13:09:43;22.80;96.50
18083;DHT22;9168;51.194;6.840;2023-04-23T13:12:09;22.70;96.80
18083;DHT22;9168;51.194;6.840;2023-04-23T13:14:39;22.30;96.60
18083;DHT22;9168;51.194;6.840;2023-04-23T13:17:06;21.70;98.00
18083;DHT22;9168;51.194;6.840;2023-04-23T13:19:33;21.80;97.80
18083;DHT22;9168;51.194;6.840;2023-04-23T13:22:02;21.50;98.00
18083;DHT22;9168;51.194;6.840;2023-04-23T13:24:29;21.20;98.20
18083;DHT22;9168;51.194;6.840;2023-04-23T13:26:56;21.20;98.30
18083;DHT22;9168;51.194;6.840;2023-04-23T13:29:23;20.80;98.40
18083;DHT22;9168;51.194;6.840;2023-04-23T13:31:53;20.50;98.20
18083;DHT22;9168;51.194;6.840;2023-04-23T13:34:20;20.60;98.90
18083;DHT22;9168;51.194;6.840;2023-04-23T13:36:47;20.50;98.50
18083;DHT22;9168;51.194;6.840;2023-04-23T13:39:14;20.40;98.80
18083;DHT22;9168;51.194;6.840;2023-04-23T13:41:42;20.30;99.30
18083;DHT22;9168;51.194;6.840;2023-04-23T13:44:09;20.10;99.50
18083;DHT22;9168;51.194;6.840;2023-04-23T13:46:38;19.70;99.40
18083;DHT22;9168;51.194;6.840;2023-04-23T13:49:07;19.50;99.90
18083;DHT22;9168;51.194;6.840;2023-04-23T13:51:34;19.20;99.90
18083;DHT22;9168;51.194;6.840;2023-04-23T13:54:00;19.20;99.90
18083;DHT22;9168;51.194;6.840;2023-04-23T13:56:28;19.20;99.90
18083;DHT22;9168;51.194;6.840;2023-04-23T13:58:56;19.30;99.90
18083;DHT22;9168;51.194;6.840;2023-04-23T14:01:27;19.20;99.90
18083;DHT22;9168;51.194;6.840;2023-04-23T14:03:53;19.40;99.90
18083;DHT22;9168;51.194;6.840;2023-04-23T14:06:22;19.30;99.90
18083;DHT22;9168;51.194;6.840;2023-04-23T14:08:49;19.20;99.90
18083;DHT22;9168;51.194;6.840;2023-04-23T14:11:16;19.00;99.90
18083;DHT22;9168;51.194;6.840;2023-04-23T14:13:43;18.90;99.90
18083;DHT22;9168;51.194;6.840;2023-04-23T14:16:10;18.80;99.90
18083;DHT22;9168;51.194;6.840;2023-04-23T14:18:37;18.80;99.90
18083;DHT22;9168;51.194;6.840;2023-04-23T14:21:04;18.70;99.90
18083;DHT22;9168;51.194;6.840;2023-04-23T14:23:50;18.70;99.90
18083;DHT22;9168;51.194;6.840;2023-04-23T14:26:25;18.60;99.90
18083;DHT22;9168;51.194;6.840;2023-04-23T14:28:56;18.50;99.90
18083;DHT22;9168;51.194;6.840;2023-04-23T14:31:23;18.40;99.90
18083;DHT22;9168;51.194;6.840;2023-04-23T14:33:50;18.30;99.90
18083;DHT22;9168;51.194;6.840;2023-04-23T14:36:17;18.20;99.90
18083;DHT22;9168;51.194;6.840;2023-04-23T14:38:44;18.20;99.90
18083;DHT22;9168;51.194;6.840;2023-04-23T14:41:12;18.20;99.90
18083;DHT22;9168;51.194;6.840;2023-04-23T14:43:39;18.20;99.90
18083;DHT22;9168;51.194;6.840;2023-04-23T14:46:06;18.30;99.90
18083;DHT22;9168;51.194;6.840;2023-04-23T14:48:33;18.30;99.90
18083;DHT22;9168;51.194;6.840;2023-04-23T14:51:00;18.20;99.90
18083;DHT22;9168;51.194;6.840;2023-04-23T14:53:27;18.20;99.90
18083;DHT22;9168;51.194;6.840;2023-04-23T14:55:54;18.20;99.90
18083;DHT22;9168;51.194;6.840;2023-04-23T14:58:23;18.10;99.90
18083;DHT22;9168;51.194;6.840;2023-04-23T15:00:50;18.00;99.90
18083;DHT22;9168;51.194;6.840;2023-04-23T15:03:17;18.00;99.90
18083;DHT22;9168;51.194;6.840;2023-04-23T15:05:44;18.00;99.90
18083;DHT22;9168;51.194;6.840;2023-04-23T15:08:10;17.90;99.90
18083;DHT22;9168;51.194;6.840;2023-04-23T15:10:38;17.80;99.90
18083;DHT22;9168;51.194;6.840;2023-04-23T15:13:07;17.70;99.90
18083;DHT22;9168;51.194;6.840;2023-04-23T15:15:41;17.60;99.90
18083;DHT22;9168;51.194;6.840;2023-04-23T15:18:09;17.50;99.90
18083;DHT22;9168;51.194;6.840;2023-04-23T15:20:36;17.40;99.90
18083;DHT22;9168;51.194;6.840;2023-04-23T15:23:03;17.40;99.90
18083;DHT22;9168;51.194;6.840;2023-04-23T15:25:30;17.20;99.90
18083;DHT22;9168;51.194;6.840;2023-04-23T15:27:58;17.00;99.90
18083;DHT22;9168;51.194;6.840;2023-04-23T15:30:26;16.80;99.90
18083;DHT22;9168;51.194;6.840;2023-04-23T15:32:55;16.70;99.90
18083;DHT22;9168;51.194;6.840;2023-04-23T15:35:22;16.40;99.90
18083;DHT22;9168;51.194;6.840;2023-04-23T15:37:49;16.10;99.90
18083;DHT22;9168;51.194;6.840;2023-04-23T15:40:16;15.90;99.90
18083;DHT22;9168;51.194;6.840;2023-04-23T15:42:43;15.70;99.90
18083;DHT22;9168;51.194;6.840;2023-04-23T15:45:11;15.60;99.90
18083;DHT22;9168;51.194;6.840;2023-04-23T15:47:38;15.50;99.90
18083;DHT22;9168;51.194;6.840;2023-04-23T15:50:09;15.30;99.90